Big Bear Station Historical Data
Daily Summary for February 21, 2019 Units:  English    Metric   Both
Next Day »
Daily Weekly Monthly Yearly Custom
  High: Low: Average:
Temperature: 27.1 °F 16.3 °F 21 °F
Dew Point: 21.5 °F 14.1 °F 18.4 °F
Humidity: 95% 76% 90%
Wind Speed: 6.8mph 0.0mph 0.7mph
Wind Gust: -999.0mph - -
Wind- - WSW
Pressure: 23.06 in 22.91 in -
Precipitation: 0.00 in    
Historical Graphs
 
 
Tabular Data for February 21, 2019
Time Temperature Dew Point Pressure Wind Wind Speed Wind Gust Humidity Rainfall Rate (Hourly)
00:06 22.3 °F 21.1 °F 23.00 in NW 6.8 mph -999.0 mph 95% 0.00 in
00:21 21.9 °F 20.7 °F 22.99 in WNW 4.7 mph -999.0 mph 95% 0.00 in
00:37 21.6 °F 20.1 °F 22.99 in NW 4.7 mph -999.0 mph 94% 0.00 in
00:52 21.6 °F 20.1 °F 22.98 in NNE 1.7 mph -999.0 mph 94% 0.00 in
01:07 21.0 °F 19.5 °F 22.97 in Calm   -999.0 mph 94% 0.00 in
01:23 21.0 °F 19.5 °F 22.97 in South 4.2 mph -999.0 mph 94% 0.00 in
01:38 21.0 °F 19.5 °F 22.97 in West 3.7 mph -999.0 mph 94% 0.00 in
01:53 21.2 °F 20.0 °F 22.96 in North 5.3 mph -999.0 mph 95% 0.00 in
02:08 21.4 °F 20.2 °F 22.95 in Calm   -999.0 mph 95% 0.00 in
02:23 21.6 °F 20.4 °F 22.95 in Calm   -999.0 mph 95% 0.00 in
02:39 21.7 °F 20.5 °F 22.95 in Calm   -999.0 mph 95% 0.00 in
02:54 21.9 °F 20.7 °F 22.95 in NNW 2.7 mph -999.0 mph 95% 0.00 in
03:09 21.9 °F 20.7 °F 22.95 in Calm   -999.0 mph 95% 0.00 in
03:24 21.9 °F 20.7 °F 22.94 in Calm   -999.0 mph 95% 0.00 in
03:39 21.9 °F 20.7 °F 22.93 in WNW 1.7 mph -999.0 mph 95% 0.00 in
03:55 21.9 °F 20.7 °F 22.93 in WNW 2.7 mph -999.0 mph 95% 0.00 in
04:10 21.9 °F 20.7 °F 22.92 in Calm   -999.0 mph 95% 0.00 in
04:25 21.7 °F 20.5 °F 22.92 in North 3.2 mph -999.0 mph 95% 0.00 in
04:41 21.6 °F 20.4 °F 22.92 in NW 3.2 mph -999.0 mph 95% 0.00 in
04:56 21.2 °F 19.5 °F 22.92 in ESE 5.3 mph -999.0 mph 93% 0.00 in
05:11 21.0 °F 19.5 °F 22.92 in WNW 1.1 mph -999.0 mph 94% 0.00 in
05:26 20.7 °F 19.2 °F 22.92 in NE 2.2 mph -999.0 mph 94% 0.00 in
05:41 20.5 °F 18.8 °F 22.92 in WSW 3.2 mph -999.0 mph 93% 0.00 in
05:57 20.3 °F 18.6 °F 22.92 in NE 3.2 mph -999.0 mph 93% 0.00 in
06:12 19.4 °F 17.7 °F 22.92 in Calm   -999.0 mph 93% 0.00 in
06:27 19.9 °F 18.5 °F 22.91 in NNE 2.7 mph -999.0 mph 94% 0.00 in
06:42 19.9 °F 18.5 °F 22.91 in Calm   -999.0 mph 94% 0.00 in
06:57 19.9 °F 18.2 °F 22.91 in Calm   -999.0 mph 93% 0.00 in
07:13 19.9 °F 18.2 °F 22.92 in Calm   -999.0 mph 93% 0.00 in
07:28 19.9 °F 18.0 °F 22.92 in NNW 3.7 mph -999.0 mph 92% 0.00 in
07:43 19.9 °F 18.0 °F 22.92 in NNW 2.2 mph -999.0 mph 92% 0.00 in
07:58 19.8 °F 17.9 °F 22.92 in Calm   -999.0 mph 92% 0.00 in
08:14 19.8 °F 18.1 °F 22.92 in Calm   -999.0 mph 93% 0.00 in
08:29 19.9 °F 18.2 °F 22.93 in Calm   -999.0 mph 93% 0.00 in
08:44 19.9 °F 18.0 °F 22.93 in Calm   -999.0 mph 92% 0.00 in
08:59 20.5 °F 18.3 °F 22.94 in Calm   -999.0 mph 91% 0.00 in
09:14 19.6 °F 17.7 °F 22.94 in Calm   -999.0 mph 92% 0.00 in
09:30 19.0 °F 17.3 °F 22.94 in Calm   -999.0 mph 93% 0.00 in
09:45 20.5 °F 18.3 °F 22.94 in Calm   -999.0 mph 91% 0.00 in
10:00 21.7 °F 19.0 °F 22.94 in Calm   -999.0 mph 89% 0.00 in
10:16 25.9 °F 20.9 °F 22.95 in Calm   -999.0 mph 81% 0.00 in
10:31 25.0 °F 20.6 °F 22.95 in Calm   -999.0 mph 83% 0.00 in
10:46 26.8 °F 21.5 °F 22.95 in Calm   -999.0 mph 80% 0.00 in
11:01 25.0 °F 20.3 °F 22.95 in Calm   -999.0 mph 82% 0.00 in
11:17 24.6 °F 20.2 °F 22.95 in Calm   -999.0 mph 83% 0.00 in
11:32 25.2 °F 20.2 °F 22.95 in Calm   -999.0 mph 81% 0.00 in
11:47 23.2 °F 19.6 °F 22.94 in Calm   -999.0 mph 86% 0.00 in
12:02 23.5 °F 19.9 °F 22.94 in Calm   -999.0 mph 86% 0.00 in
12:17 23.2 °F 19.6 °F 22.94 in Calm   -999.0 mph 86% 0.00 in
12:33 24.3 °F 19.9 °F 22.94 in Calm   -999.0 mph 83% 0.00 in
12:48 24.8 °F 20.7 °F 22.94 in Calm   -999.0 mph 84% 0.00 in
13:03 25.9 °F 20.9 °F 22.94 in Calm   -999.0 mph 81% 0.00 in
13:18 24.8 °F 20.4 °F 22.94 in Calm   -999.0 mph 83% 0.00 in
13:34 23.2 °F 19.6 °F 22.94 in Calm   -999.0 mph 86% 0.00 in
13:49 24.8 °F 20.4 °F 22.94 in Calm   -999.0 mph 83% 0.00 in
14:04 24.6 °F 19.3 °F 22.94 in Calm   -999.0 mph 80% 0.00 in
14:19 26.2 °F 20.3 °F 22.94 in Calm   -999.0 mph 78% 0.00 in
14:34 24.4 °F 20.0 °F 22.94 in Calm   -999.0 mph 83% 0.00 in
14:50 24.6 °F 20.2 °F 22.94 in Calm   -999.0 mph 83% 0.00 in
15:05 25.3 °F 19.7 °F 22.94 in Calm   -999.0 mph 79% 0.00 in
15:20 27.1 °F 20.5 °F 22.94 in Calm   -999.0 mph 76% 0.00 in
15:35 25.3 °F 19.1 °F 22.94 in Calm   -999.0 mph 77% 0.00 in
15:50 21.7 °F 18.2 °F 22.95 in Calm   -999.0 mph 86% 0.00 in
16:06 21.9 °F 17.8 °F 22.95 in Calm   -999.0 mph 84% 0.00 in
16:21 22.1 °F 18.0 °F 22.96 in Calm   -999.0 mph 84% 0.00 in
16:36 20.7 °F 16.6 °F 22.96 in Calm   -999.0 mph 84% 0.00 in
16:51 19.8 °F 16.0 °F 22.96 in Calm   -999.0 mph 85% 0.00 in
17:06 19.6 °F 16.4 °F 22.96 in Calm   -999.0 mph 87% 0.00 in
17:22 18.3 °F 15.3 °F 22.96 in Calm   -999.0 mph 88% 0.00 in
17:37 16.9 °F 14.2 °F 22.97 in Calm   -999.0 mph 89% 0.00 in
17:52 16.3 °F 14.1 °F 22.97 in Calm   -999.0 mph 91% 0.00 in
18:07 17.1 °F 15.4 °F 22.98 in Calm   -999.0 mph 93% 0.00 in
18:22 17.4 °F 15.7 °F 22.98 in Calm   -999.0 mph 93% 0.00 in
18:38 17.4 °F 15.7 °F 22.98 in Calm   -999.0 mph 93% 0.00 in
18:53 17.4 °F 15.7 °F 22.99 in Calm   -999.0 mph 93% 0.00 in
19:08 17.8 °F 16.1 °F 22.99 in Calm   -999.0 mph 93% 0.00 in
19:23 18.1 °F 16.2 °F 22.99 in Calm   -999.0 mph 92% 0.00 in
19:39 18.5 °F 16.6 °F 23.00 in Calm   -999.0 mph 92% 0.00 in
19:54 18.5 °F 16.6 °F 23.01 in Calm   -999.0 mph 92% 0.00 in
20:09 18.3 °F 16.4 °F 23.01 in Calm   -999.0 mph 92% 0.00 in
20:24 18.3 °F 16.4 °F 23.01 in Calm   -999.0 mph 92% 0.00 in
20:39 18.3 °F 16.6 °F 23.02 in Calm   -999.0 mph 93% 0.00 in
20:55 18.5 °F 16.6 °F 23.02 in Calm   -999.0 mph 92% 0.00 in
21:10 18.5 °F 16.6 °F 23.03 in Calm   -999.0 mph 92% 0.00 in
21:25 18.5 °F 16.6 °F 23.03 in Calm   -999.0 mph 92% 0.00 in
21:40 18.5 °F 16.3 °F 23.04 in Calm   -999.0 mph 91% 0.00 in
21:55 18.3 °F 16.1 °F 23.04 in Calm   -999.0 mph 91% 0.00 in
22:11 18.1 °F 15.9 °F 23.04 in Calm   -999.0 mph 91% 0.00 in
22:26 18.3 °F 16.1 °F 23.05 in Calm   -999.0 mph 91% 0.00 in
22:41 18.3 °F 16.1 °F 23.05 in Calm   -999.0 mph 91% 0.00 in
22:56 18.3 °F 16.4 °F 23.05 in Calm   -999.0 mph 92% 0.00 in
23:11 18.3 °F 16.1 °F 23.05 in Calm   -999.0 mph 91% 0.00 in
23:27 18.3 °F 16.1 °F 23.05 in Calm   -999.0 mph 91% 0.00 in
23:42 18.3 °F 16.1 °F 23.06 in Calm   -999.0 mph 91% 0.00 in
23:57 18.3 °F 16.1 °F 23.06 in Calm   -999.0 mph 91% 0.00 in
Big Bear CA Weather